sensor_id;sensor_type;location;lat;lon;timestamp;temperature;humidity
48806;DHT22;34625;47.176;27.548;2023-10-31T00:01:55;25.50;49.20
48806;DHT22;34625;47.176;27.548;2023-10-31T00:04:21;25.50;49.20
48806;DHT22;34625;47.176;27.548;2023-10-31T00:06:48;25.60;49.30
48806;DHT22;34625;47.176;27.548;2023-10-31T00:09:14;25.50;49.30
48806;DHT22;34625;47.176;27.548;2023-10-31T00:11:41;25.40;49.40
48806;DHT22;34625;47.176;27.548;2023-10-31T00:14:08;25.50;49.40
48806;DHT22;34625;47.176;27.548;2023-10-31T00:16:34;25.50;49.50
48806;DHT22;34625;47.176;27.548;2023-10-31T00:19:00;25.50;49.50
48806;DHT22;34625;47.176;27.548;2023-10-31T00:21:28;25.60;49.50
48806;DHT22;34625;47.176;27.548;2023-10-31T00:23:54;25.60;49.60
48806;DHT22;34625;47.176;27.548;2023-10-31T00:26:20;25.60;49.60
48806;DHT22;34625;47.176;27.548;2023-10-31T00:28:52;25.50;49.60
48806;DHT22;34625;47.176;27.548;2023-10-31T00:31:18;25.40;49.60
48806;DHT22;34625;47.176;27.548;2023-10-31T00:33:44;25.30;49.70
48806;DHT22;34625;47.176;27.548;2023-10-31T00:36:10;25.30;49.70
48806;DHT22;34625;47.176;27.548;2023-10-31T00:38:36;25.30;49.80
48806;DHT22;34625;47.176;27.548;2023-10-31T00:41:02;25.40;49.80
48806;DHT22;34625;47.176;27.548;2023-10-31T00:43:28;25.30;49.80
48806;DHT22;34625;47.176;27.548;2023-10-31T00:45:54;25.40;49.90
48806;DHT22;34625;47.176;27.548;2023-10-31T00:48:21;25.30;50.00
48806;DHT22;34625;47.176;27.548;2023-10-31T00:50:47;25.30;50.10
48806;DHT22;34625;47.176;27.548;2023-10-31T00:53:13;25.30;50.10
48806;DHT22;34625;47.176;27.548;2023-10-31T00:55:40;25.30;50.20
48806;DHT22;34625;47.176;27.548;2023-10-31T00:58:07;25.30;50.20
48806;DHT22;34625;47.176;27.548;2023-10-31T01:00:33;25.40;50.30
48806;DHT22;34625;47.176;27.548;2023-10-31T01:03:00;25.30;50.30
48806;DHT22;34625;47.176;27.548;2023-10-31T01:05:26;25.50;50.40
48806;DHT22;34625;47.176;27.548;2023-10-31T01:07:55;25.50;50.40
48806;DHT22;34625;47.176;27.548;2023-10-31T01:10:21;25.30;50.40
48806;DHT22;34625;47.176;27.548;2023-10-31T01:12:47;25.30;50.40
48806;DHT22;34625;47.176;27.548;2023-10-31T01:15:13;25.40;50.50
48806;DHT22;34625;47.176;27.548;2023-10-31T01:17:39;25.50;50.50
48806;DHT22;34625;47.176;27.548;2023-10-31T01:20:06;25.30;50.50
48806;DHT22;34625;47.176;27.548;2023-10-31T01:22:32;25.30;50.50
48806;DHT22;34625;47.176;27.548;2023-10-31T01:24:58;25.30;50.50
48806;DHT22;34625;47.176;27.548;2023-10-31T01:27:24;25.30;50.50
48806;DHT22;34625;47.176;27.548;2023-10-31T01:29:50;25.20;50.50
48806;DHT22;34625;47.176;27.548;2023-10-31T01:32:16;25.30;50.50
48806;DHT22;34625;47.176;27.548;2023-10-31T01:34:43;25.20;50.50
48806;DHT22;34625;47.176;27.548;2023-10-31T01:37:10;25.20;50.60
48806;DHT22;34625;47.176;27.548;2023-10-31T01:39:36;25.40;50.60
48806;DHT22;34625;47.176;27.548;2023-10-31T01:42:03;25.30;50.50
48806;DHT22;34625;47.176;27.548;2023-10-31T01:44:29;25.30;50.60
48806;DHT22;34625;47.176;27.548;2023-10-31T01:46:55;25.30;50.60
48806;DHT22;34625;47.176;27.548;2023-10-31T01:49:21;25.30;50.70
48806;DHT22;34625;47.176;27.548;2023-10-31T01:51:49;25.20;50.80
48806;DHT22;34625;47.176;27.548;2023-10-31T01:54:15;25.30;50.80
48806;DHT22;34625;47.176;27.548;2023-10-31T01:56:42;25.30;50.90
48806;DHT22;34625;47.176;27.548;2023-10-31T01:59:08;25.30;50.90
48806;DHT22;34625;47.176;27.548;2023-10-31T02:01:38;25.30;51.00
48806;DHT22;34625;47.176;27.548;2023-10-31T02:04:07;25.40;51.00
48806;DHT22;34625;47.176;27.548;2023-10-31T02:06:33;25.30;51.00
48806;DHT22;34625;47.176;27.548;2023-10-31T02:08:59;25.30;51.10
48806;DHT22;34625;47.176;27.548;2023-10-31T02:11:26;25.30;51.10
48806;DHT22;34625;47.176;27.548;2023-10-31T02:13:52;25.30;51.10
48806;DHT22;34625;47.176;27.548;2023-10-31T02:16:18;25.30;51.10
48806;DHT22;34625;47.176;27.548;2023-10-31T02:18:45;25.30;51.10
48806;DHT22;34625;47.176;27.548;2023-10-31T02:21:11;25.20;51.10
48806;DHT22;34625;47.176;27.548;2023-10-31T02:23:37;25.30;51.10
48806;DHT22;34625;47.176;27.548;2023-10-31T02:26:03;25.30;51.10
48806;DHT22;34625;47.176;27.548;2023-10-31T02:28:30;25.30;51.20
48806;DHT22;34625;47.176;27.548;2023-10-31T02:30:57;25.10;51.20
48806;DHT22;34625;47.176;27.548;2023-10-31T02:33:23;25.30;51.20
48806;DHT22;34625;47.176;27.548;2023-10-31T02:35:49;25.20;51.20
48806;DHT22;34625;47.176;27.548;2023-10-31T02:38:15;25.20;51.20
48806;DHT22;34625;47.176;27.548;2023-10-31T02:40:41;25.30;51.40
48806;DHT22;34625;47.176;27.548;2023-10-31T02:43:08;25.10;51.40
48806;DHT22;34625;47.176;27.548;2023-10-31T02:45:34;25.20;51.50
48806;DHT22;34625;47.176;27.548;2023-10-31T02:48:00;25.20;51.50
48806;DHT22;34625;47.176;27.548;2023-10-31T02:50:26;25.20;51.50
48806;DHT22;34625;47.176;27.548;2023-10-31T02:52:53;25.20;51.50
48806;DHT22;34625;47.176;27.548;2023-10-31T02:55:19;25.10;51.60
48806;DHT22;34625;47.176;27.548;2023-10-31T02:57:45;25.20;51.60
48806;DHT22;34625;47.176;27.548;2023-10-31T03:00:12;25.20;51.70
48806;DHT22;34625;47.176;27.548;2023-10-31T03:02:38;25.30;51.60
48806;DHT22;34625;47.176;27.548;2023-10-31T03:05:04;25.30;51.70
48806;DHT22;34625;47.176;27.548;2023-10-31T03:07:30;25.20;51.70
48806;DHT22;34625;47.176;27.548;2023-10-31T03:09:56;25.20;51.60
48806;DHT22;34625;47.176;27.548;2023-10-31T03:12:25;25.20;51.60
48806;DHT22;34625;47.176;27.548;2023-10-31T03:14:51;25.20;51.60
48806;DHT22;34625;47.176;27.548;2023-10-31T03:17:17;25.10;51.70
48806;DHT22;34625;47.176;27.548;2023-10-31T03:19:44;25.10;51.70
48806;DHT22;34625;47.176;27.548;2023-10-31T03:22:10;25.10;51.70
48806;DHT22;34625;47.176;27.548;2023-10-31T03:24:36;25.10;51.70
48806;DHT22;34625;47.176;27.548;2023-10-31T03:27:02;25.00;51.70
48806;DHT22;34625;47.176;27.548;2023-10-31T03:29:28;25.00;51.70
48806;DHT22;34625;47.176;27.548;2023-10-31T03:31:54;25.10;51.80
48806;DHT22;34625;47.176;27.548;2023-10-31T03:34:20;25.10;51.90
48806;DHT22;34625;47.176;27.548;2023-10-31T03:36:46;25.00;52.00
48806;DHT22;34625;47.176;27.548;2023-10-31T03:39:12;25.00;52.00
48806;DHT22;34625;47.176;27.548;2023-10-31T03:41:38;25.10;52.10
48806;DHT22;34625;47.176;27.548;2023-10-31T03:44:04;25.10;52.10
48806;DHT22;34625;47.176;27.548;2023-10-31T03:46:30;25.10;52.10
48806;DHT22;34625;47.176;27.548;2023-10-31T03:48:56;25.00;52.10
48806;DHT22;34625;47.176;27.548;2023-10-31T03:51:22;25.20;52.10
48806;DHT22;34625;47.176;27.548;2023-10-31T03:53:48;25.10;52.00
48806;DHT22;34625;47.176;27.548;2023-10-31T03:56:15;25.20;52.10
48806;DHT22;34625;47.176;27.548;2023-10-31T03:58:42;25.10;52.10
48806;DHT22;34625;47.176;27.548;2023-10-31T04:01:08;25.20;52.10
48806;DHT22;34625;47.176;27.548;2023-10-31T04:03:34;25.20;52.10
48806;DHT22;34625;47.176;27.548;2023-10-31T04:06:00;25.10;52.00
48806;DHT22;34625;47.176;27.548;2023-10-31T04:08:26;25.20;52.00
48806;DHT22;34625;47.176;27.548;2023-10-31T04:10:52;25.20;52.10
48806;DHT22;34625;47.176;27.548;2023-10-31T04:13:18;25.00;52.10
48806;DHT22;34625;47.176;27.548;2023-10-31T04:15:44;25.00;52.10
48806;DHT22;34625;47.176;27.548;2023-10-31T04:18:10;25.10;52.10
48806;DHT22;34625;47.176;27.548;2023-10-31T04:20:36;25.00;52.10
48806;DHT22;34625;47.176;27.548;2023-10-31T04:23:02;25.10;52.20
48806;DHT22;34625;47.176;27.548;2023-10-31T04:25:28;25.10;52.20
48806;DHT22;34625;47.176;27.548;2023-10-31T04:27:55;25.00;52.20
48806;DHT22;34625;47.176;27.548;2023-10-31T04:30:21;25.00;52.30
48806;DHT22;34625;47.176;27.548;2023-10-31T04:32:47;25.00;52.30
48806;DHT22;34625;47.176;27.548;2023-10-31T04:35:13;25.00;52.40
48806;DHT22;34625;47.176;27.548;2023-10-31T04:37:39;24.80;52.30
48806;DHT22;34625;47.176;27.548;2023-10-31T04:40:05;25.00;52.40
48806;DHT22;34625;47.176;27.548;2023-10-31T04:42:34;24.90;52.40
48806;DHT22;34625;47.176;27.548;2023-10-31T04:45:00;25.00;52.40
48806;DHT22;34625;47.176;27.548;2023-10-31T04:47:26;24.80;52.30
48806;DHT22;34625;47.176;27.548;2023-10-31T04:49:52;24.90;52.40
48806;DHT22;34625;47.176;27.548;2023-10-31T04:52:18;25.00;52.40
48806;DHT22;34625;47.176;27.548;2023-10-31T04:54:45;24.90;52.50
48806;DHT22;34625;47.176;27.548;2023-10-31T04:57:11;24.90;52.50
48806;DHT22;34625;47.176;27.548;2023-10-31T04:59:37;24.90;52.70
48806;DHT22;34625;47.176;27.548;2023-10-31T05:02:03;25.00;52.80
48806;DHT22;34625;47.176;27.548;2023-10-31T05:04:29;24.90;52.80
48806;DHT22;34625;47.176;27.548;2023-10-31T05:06:55;24.90;52.80
48806;DHT22;34625;47.176;27.548;2023-10-31T05:09:22;24.90;52.80
48806;DHT22;34625;47.176;27.548;2023-10-31T05:11:49;25.10;52.80
48806;DHT22;34625;47.176;27.548;2023-10-31T05:14:15;24.90;52.80
48806;DHT22;34625;47.176;27.548;2023-10-31T05:16:42;25.00;52.70
48806;DHT22;34625;47.176;27.548;2023-10-31T05:19:08;25.00;52.80
48806;DHT22;34625;47.176;27.548;2023-10-31T05:21:35;25.00;52.70
48806;DHT22;34625;47.176;27.548;2023-10-31T05:24:01;25.20;52.70
48806;DHT22;34625;47.176;27.548;2023-10-31T05:26:27;25.10;52.70
48806;DHT22;34625;47.176;27.548;2023-10-31T05:28:55;25.00;52.60
48806;DHT22;34625;47.176;27.548;2023-10-31T05:31:23;25.00;52.60
48806;DHT22;34625;47.176;27.548;2023-10-31T05:33:51;25.00;52.60
48806;DHT22;34625;47.176;27.548;2023-10-31T05:36:22;25.10;52.60
48806;DHT22;34625;47.176;27.548;2023-10-31T05:38:49;25.10;52.60
48806;DHT22;34625;47.176;27.548;2023-10-31T05:41:15;25.20;52.60
48806;DHT22;34625;47.176;27.548;2023-10-31T05:43:41;25.20;52.60
48806;DHT22;34625;47.176;27.548;2023-10-31T05:46:08;25.20;52.60
48806;DHT22;34625;47.176;27.548;2023-10-31T05:48:43;25.20;52.60
48806;DHT22;34625;47.176;27.548;2023-10-31T05:51:12;25.20;52.60
48806;DHT22;34625;47.176;27.548;2023-10-31T05:53:39;25.30;52.50
48806;DHT22;34625;47.176;27.548;2023-10-31T05:56:06;25.20;52.50
48806;DHT22;34625;47.176;27.548;2023-10-31T05:58:33;25.20;52.60
48806;DHT22;34625;47.176;27.548;2023-10-31T06:00:59;25.30;52.60
48806;DHT22;34625;47.176;27.548;2023-10-31T06:03:25;25.30;52.50
48806;DHT22;34625;47.176;27.548;2023-10-31T06:05:51;25.30;52.50
48806;DHT22;34625;47.176;27.548;2023-10-31T06:08:17;25.30;52.50
48806;DHT22;34625;47.176;27.548;2023-10-31T06:10:43;25.20;52.50
48806;DHT22;34625;47.176;27.548;2023-10-31T06:13:09;25.30;52.50
48806;DHT22;34625;47.176;27.548;2023-10-31T06:15:35;25.30;52.50
48806;DHT22;34625;47.176;27.548;2023-10-31T06:18:01;25.30;52.40
48806;DHT22;34625;47.176;27.548;2023-10-31T06:20:29;25.20;52.40
48806;DHT22;34625;47.176;27.548;2023-10-31T06:22:54;25.30;52.40
48806;DHT22;34625;47.176;27.548;2023-10-31T06:25:20;25.40;52.40
48806;DHT22;34625;47.176;27.548;2023-10-31T06:27:46;25.40;52.30
48806;DHT22;34625;47.176;27.548;2023-10-31T06:30:13;25.30;52.30
48806;DHT22;34625;47.176;27.548;2023-10-31T06:32:39;25.50;52.20
48806;DHT22;34625;47.176;27.548;2023-10-31T06:35:06;25.30;52.30
48806;DHT22;34625;47.176;27.548;2023-10-31T06:37:32;25.40;52.10
48806;DHT22;34625;47.176;27.548;2023-10-31T06:39:58;25.30;52.20
48806;DHT22;34625;47.176;27.548;2023-10-31T06:42:24;25.30;52.20
48806;DHT22;34625;47.176;27.548;2023-10-31T06:44:50;25.40;52.10
48806;DHT22;34625;47.176;27.548;2023-10-31T06:47:16;25.30;52.10
48806;DHT22;34625;47.176;27.548;2023-10-31T06:49:42;25.30;52.10
48806;DHT22;34625;47.176;27.548;2023-10-31T06:52:08;25.30;51.40
48806;DHT22;34625;47.176;27.548;2023-10-31T06:54:34;25.50;50.40
48806;DHT22;34625;47.176;27.548;2023-10-31T06:57:00;25.40;48.90
48806;DHT22;34625;47.176;27.548;2023-10-31T06:59:27;25.30;47.30
48806;DHT22;34625;47.176;27.548;2023-10-31T07:01:55;25.50;49.40
48806;DHT22;34625;47.176;27.548;2023-10-31T07:04:21;25.60;51.40
48806;DHT22;34625;47.176;27.548;2023-10-31T07:06:47;25.50;45.80
48806;DHT22;34625;47.176;27.548;2023-10-31T07:09:14;25.60;47.00
48806;DHT22;34625;47.176;27.548;2023-10-31T07:11:40;25.40;46.30
48806;DHT22;34625;47.176;27.548;2023-10-31T07:14:06;25.50;45.60
48806;DHT22;34625;47.176;27.548;2023-10-31T07:16:32;25.60;46.20
48806;DHT22;34625;47.176;27.548;2023-10-31T07:18:58;25.40;46.60
48806;DHT22;34625;47.176;27.548;2023-10-31T07:21:24;25.50;47.00
48806;DHT22;34625;47.176;27.548;2023-10-31T07:23:51;25.60;48.10
48806;DHT22;34625;47.176;27.548;2023-10-31T07:26:18;25.60;48.20
48806;DHT22;34625;47.176;27.548;2023-10-31T07:28:43;25.70;49.80
48806;DHT22;34625;47.176;27.548;2023-10-31T07:31:10;25.70;51.50
48806;DHT22;34625;47.176;27.548;2023-10-31T07:33:35;25.80;48.90
48806;DHT22;34625;47.176;27.548;2023-10-31T07:36:02;25.80;48.70
48806;DHT22;34625;47.176;27.548;2023-10-31T07:38:28;25.80;51.70
48806;DHT22;34625;47.176;27.548;2023-10-31T07:40:54;25.70;52.10
48806;DHT22;34625;47.176;27.548;2023-10-31T07:43:20;25.80;52.30
48806;DHT22;34625;47.176;27.548;2023-10-31T07:45:46;25.80;52.80
48806;DHT22;34625;47.176;27.548;2023-10-31T07:48:12;25.80;51.40
48806;DHT22;34625;47.176;27.548;2023-10-31T07:50:38;25.90;48.20
48806;DHT22;34625;47.176;27.548;2023-10-31T07:53:03;26.00;49.40
48806;DHT22;34625;47.176;27.548;2023-10-31T07:55:29;26.20;52.40
48806;DHT22;34625;47.176;27.548;2023-10-31T07:57:56;26.20;51.70
48806;DHT22;34625;47.176;27.548;2023-10-31T08:00:22;26.20;51.70
48806;DHT22;34625;47.176;27.548;2023-10-31T08:02:48;26.40;51.70
48806;DHT22;34625;47.176;27.548;2023-10-31T08:05:14;26.60;51.00
48806;DHT22;34625;47.176;27.548;2023-10-31T08:07:40;26.60;48.20
48806;DHT22;34625;47.176;27.548;2023-10-31T08:10:06;26.60;47.20
48806;DHT22;34625;47.176;27.548;2023-10-31T08:12:32;26.70;48.50
48806;DHT22;34625;47.176;27.548;2023-10-31T08:14:58;26.60;51.00
48806;DHT22;34625;47.176;27.548;2023-10-31T08:17:25;26.80;51.20
48806;DHT22;34625;47.176;27.548;2023-10-31T08:19:52;26.70;50.70
48806;DHT22;34625;47.176;27.548;2023-10-31T08:22:17;26.80;50.70
48806;DHT22;34625;47.176;27.548;2023-10-31T08:24:43;26.80;50.50
48806;DHT22;34625;47.176;27.548;2023-10-31T08:27:10;26.70;50.80
48806;DHT22;34625;47.176;27.548;2023-10-31T08:29:36;26.60;50.10
48806;DHT22;34625;47.176;27.548;2023-10-31T08:32:03;26.70;50.00
48806;DHT22;34625;47.176;27.548;2023-10-31T08:34:29;26.70;49.40
48806;DHT22;34625;47.176;27.548;2023-10-31T08:36:55;26.60;49.40
48806;DHT22;34625;47.176;27.548;2023-10-31T08:39:22;26.70;49.20
48806;DHT22;34625;47.176;27.548;2023-10-31T08:41:56;26.70;49.20
48806;DHT22;34625;47.176;27.548;2023-10-31T08:44:22;26.60;48.90
48806;DHT22;34625;47.176;27.548;2023-10-31T08:46:49;26.60;48.80
48806;DHT22;34625;47.176;27.548;2023-10-31T08:49:16;26.60;48.60
48806;DHT22;34625;47.176;27.548;2023-10-31T08:51:42;26.70;48.70
48806;DHT22;34625;47.176;27.548;2023-10-31T08:54:09;26.60;48.50
48806;DHT22;34625;47.176;27.548;2023-10-31T08:56:35;26.60;48.60
48806;DHT22;34625;47.176;27.548;2023-10-31T08:59:01;26.60;49.30
48806;DHT22;34625;47.176;27.548;2023-10-31T09:01:27;26.60;48.80
48806;DHT22;34625;47.176;27.548;2023-10-31T09:03:56;26.70;50.30
48806;DHT22;34625;47.176;27.548;2023-10-31T09:06:24;26.80;52.00
48806;DHT22;34625;47.176;27.548;2023-10-31T09:08:50;27.00;48.80
48806;DHT22;34625;47.176;27.548;2023-10-31T09:11:16;26.80;48.00
48806;DHT22;34625;47.176;27.548;2023-10-31T09:13:42;26.70;47.70
48806;DHT22;34625;47.176;27.548;2023-10-31T09:16:08;26.80;47.90
48806;DHT22;34625;47.176;27.548;2023-10-31T09:18:35;26.70;47.90
48806;DHT22;34625;47.176;27.548;2023-10-31T09:21:02;26.70;48.00
48806;DHT22;34625;47.176;27.548;2023-10-31T09:23:28;26.70;47.90
48806;DHT22;34625;47.176;27.548;2023-10-31T09:25:55;26.60;47.80
48806;DHT22;34625;47.176;27.548;2023-10-31T09:28:21;26.70;48.00
48806;DHT22;34625;47.176;27.548;2023-10-31T09:30:47;26.70;47.90
48806;DHT22;34625;47.176;27.548;2023-10-31T09:33:13;26.60;47.90
48806;DHT22;34625;47.176;27.548;2023-10-31T09:35:39;26.60;47.90
48806;DHT22;34625;47.176;27.548;2023-10-31T09:38:05;26.50;47.70
48806;DHT22;34625;47.176;27.548;2023-10-31T09:40:32;26.60;47.80
48806;DHT22;34625;47.176;27.548;2023-10-31T09:42:58;26.70;47.80
48806;DHT22;34625;47.176;27.548;2023-10-31T09:45:24;26.60;47.80
48806;DHT22;34625;47.176;27.548;2023-10-31T09:47:50;26.50;47.80
48806;DHT22;34625;47.176;27.548;2023-10-31T09:50:17;26.50;47.80
48806;DHT22;34625;47.176;27.548;2023-10-31T09:52:44;26.60;47.80
48806;DHT22;34625;47.176;27.548;2023-10-31T09:55:11;26.50;47.80
48806;DHT22;34625;47.176;27.548;2023-10-31T09:57:37;26.40;47.80
48806;DHT22;34625;47.176;27.548;2023-10-31T10:00:03;26.30;47.80
48806;DHT22;34625;47.176;27.548;2023-10-31T10:02:35;26.40;47.80
48806;DHT22;34625;47.176;27.548;2023-10-31T10:05:02;26.30;47.90
48806;DHT22;34625;47.176;27.548;2023-10-31T10:07:28;26.40;47.90
48806;DHT22;34625;47.176;27.548;2023-10-31T10:09:56;26.40;48.10
48806;DHT22;34625;47.176;27.548;2023-10-31T10:12:22;26.20;48.20
48806;DHT22;34625;47.176;27.548;2023-10-31T10:14:48;26.30;48.20
48806;DHT22;34625;47.176;27.548;2023-10-31T10:17:17;26.20;48.50
48806;DHT22;34625;47.176;27.548;2023-10-31T10:19:43;26.40;48.60
48806;DHT22;34625;47.176;27.548;2023-10-31T10:22:10;26.20;49.00
48806;DHT22;34625;47.176;27.548;2023-10-31T10:24:39;26.20;48.70
48806;DHT22;34625;47.176;27.548;2023-10-31T10:27:07;26.10;48.70
48806;DHT22;34625;47.176;27.548;2023-10-31T10:29:34;26.20;48.80
48806;DHT22;34625;47.176;27.548;2023-10-31T10:32:01;26.20;48.80
48806;DHT22;34625;47.176;27.548;2023-10-31T10:34:27;26.00;48.90
48806;DHT22;34625;47.176;27.548;2023-10-31T10:36:53;26.10;48.90
48806;DHT22;34625;47.176;27.548;2023-10-31T10:39:22;26.10;48.90
48806;DHT22;34625;47.176;27.548;2023-10-31T10:41:55;26.10;48.90
48806;DHT22;34625;47.176;27.548;2023-10-31T10:44:43;26.20;48.90
48806;DHT22;34625;47.176;27.548;2023-10-31T10:47:08;26.20;49.00
48806;DHT22;34625;47.176;27.548;2023-10-31T10:49:37;26.20;49.00
48806;DHT22;34625;47.176;27.548;2023-10-31T10:52:17;26.00;49.00
48806;DHT22;34625;47.176;27.548;2023-10-31T10:55:03;26.00;49.10
48806;DHT22;34625;47.176;27.548;2023-10-31T10:57:56;25.90;48.60
48806;DHT22;34625;47.176;27.548;2023-10-31T11:00:26;26.00;49.10
48806;DHT22;34625;47.176;27.548;2023-10-31T11:02:53;25.90;48.60
48806;DHT22;34625;47.176;27.548;2023-10-31T11:05:19;26.00;49.10
48806;DHT22;34625;47.176;27.548;2023-10-31T11:07:46;25.90;48.70
48806;DHT22;34625;47.176;27.548;2023-10-31T11:10:13;25.90;48.70
48806;DHT22;34625;47.176;27.548;2023-10-31T11:12:40;25.90;48.80
48806;DHT22;34625;47.176;27.548;2023-10-31T11:15:07;25.90;48.70
48806;DHT22;34625;47.176;27.548;2023-10-31T11:17:39;25.80;48.60
48806;DHT22;34625;47.176;27.548;2023-10-31T11:20:09;25.80;48.50
48806;DHT22;34625;47.176;27.548;2023-10-31T11:22:45;25.80;48.40
48806;DHT22;34625;47.176;27.548;2023-10-31T11:25:19;25.80;48.20
48806;DHT22;34625;47.176;27.548;2023-10-31T11:27:46;25.90;48.10
48806;DHT22;34625;47.176;27.548;2023-10-31T11:32:54;26.30;52.20
48806;DHT22;34625;47.176;27.548;2023-10-31T11:35:22;26.90;58.00
48806;DHT22;34625;47.176;27.548;2023-10-31T11:38:00;27.00;50.50
48806;DHT22;34625;47.176;27.548;2023-10-31T11:40:27;26.80;49.00
48806;DHT22;34625;47.176;27.548;2023-10-31T11:42:57;26.80;49.10
48806;DHT22;34625;47.176;27.548;2023-10-31T11:48:03;26.70;48.00
48806;DHT22;34625;47.176;27.548;2023-10-31T11:50:36;26.70;47.30
48806;DHT22;34625;47.176;27.548;2023-10-31T11:53:05;26.60;47.20
48806;DHT22;34625;47.176;27.548;2023-10-31T11:55:36;26.60;46.80
48806;DHT22;34625;47.176;27.548;2023-10-31T11:58:22;26.80;46.70
48806;DHT22;34625;47.176;27.548;2023-10-31T12:00:50;26.90;47.20
48806;DHT22;34625;47.176;27.548;2023-10-31T12:03:17;26.80;46.60
48806;DHT22;34625;47.176;27.548;2023-10-31T12:05:54;26.90;46.00
48806;DHT22;34625;47.176;27.548;2023-10-31T12:08:31;26.70;46.10
48806;DHT22;34625;47.176;27.548;2023-10-31T12:11:08;26.80;46.00
48806;DHT22;34625;47.176;27.548;2023-10-31T12:13:35;27.00;46.40
48806;DHT22;34625;47.176;27.548;2023-10-31T12:16:02;26.80;45.80
48806;DHT22;34625;47.176;27.548;2023-10-31T12:18:28;26.80;45.70
48806;DHT22;34625;47.176;27.548;2023-10-31T12:20:55;26.70;45.70
48806;DHT22;34625;47.176;27.548;2023-10-31T12:23:21;26.90;45.80
48806;DHT22;34625;47.176;27.548;2023-10-31T12:25:53;26.70;46.00
48806;DHT22;34625;47.176;27.548;2023-10-31T12:28:24;26.70;45.60
48806;DHT22;34625;47.176;27.548;2023-10-31T12:30:54;26.70;45.90
48806;DHT22;34625;47.176;27.548;2023-10-31T12:33:21;26.80;45.90
48806;DHT22;34625;47.176;27.548;2023-10-31T12:35:52;26.80;46.30
48806;DHT22;34625;47.176;27.548;2023-10-31T12:38:22;27.00;46.50
48806;DHT22;34625;47.176;27.548;2023-10-31T12:40:48;27.00;47.10
48806;DHT22;34625;47.176;27.548;2023-10-31T12:43:16;27.00;46.90
48806;DHT22;34625;47.176;27.548;2023-10-31T12:45:43;27.10;46.60
48806;DHT22;34625;47.176;27.548;2023-10-31T12:48:10;27.10;46.10
48806;DHT22;34625;47.176;27.548;2023-10-31T12:50:38;27.00;46.20
48806;DHT22;34625;47.176;27.548;2023-10-31T12:53:08;27.10;46.20
48806;DHT22;34625;47.176;27.548;2023-10-31T12:55:39;27.00;46.00
48806;DHT22;34625;47.176;27.548;2023-10-31T12:58:05;27.10;45.80
48806;DHT22;34625;47.176;27.548;2023-10-31T13:00:33;27.20;46.50
48806;DHT22;34625;47.176;27.548;2023-10-31T13:03:02;27.50;47.60
48806;DHT22;34625;47.176;27.548;2023-10-31T13:05:28;27.90;47.80
48806;DHT22;34625;47.176;27.548;2023-10-31T13:07:55;28.10;46.60
48806;DHT22;34625;47.176;27.548;2023-10-31T13:10:26;27.90;43.70
48806;DHT22;34625;47.176;27.548;2023-10-31T13:12:53;27.70;44.10
48806;DHT22;34625;47.176;27.548;2023-10-31T13:15:21;27.70;44.00
48806;DHT22;34625;47.176;27.548;2023-10-31T13:17:51;27.70;43.80
48806;DHT22;34625;47.176;27.548;2023-10-31T13:20:20;27.60;43.40
48806;DHT22;34625;47.176;27.548;2023-10-31T13:22:47;27.70;43.40
48806;DHT22;34625;47.176;27.548;2023-10-31T13:25:15;27.60;43.50
48806;DHT22;34625;47.176;27.548;2023-10-31T13:27:43;27.40;43.50
48806;DHT22;34625;47.176;27.548;2023-10-31T13:30:10;27.50;43.70
48806;DHT22;34625;47.176;27.548;2023-10-31T13:32:37;27.50;43.70
48806;DHT22;34625;47.176;27.548;2023-10-31T13:35:05;27.40;43.70
48806;DHT22;34625;47.176;27.548;2023-10-31T13:37:31;27.40;43.80
48806;DHT22;34625;47.176;27.548;2023-10-31T13:39:57;27.50;43.90
48806;DHT22;34625;47.176;27.548;2023-10-31T13:42:23;27.40;44.00
48806;DHT22;34625;47.176;27.548;2023-10-31T13:44:51;27.30;44.30
48806;DHT22;34625;47.176;27.548;2023-10-31T13:47:17;27.30;44.60
48806;DHT22;34625;47.176;27.548;2023-10-31T13:49:43;27.20;44.90
48806;DHT22;34625;47.176;27.548;2023-10-31T13:52:09;27.10;45.20
48806;DHT22;34625;47.176;27.548;2023-10-31T13:54:35;27.20;45.70
48806;DHT22;34625;47.176;27.548;2023-10-31T13:57:01;27.00;45.50
48806;DHT22;34625;47.176;27.548;2023-10-31T13:59:27;27.10;45.50
48806;DHT22;34625;47.176;27.548;2023-10-31T14:01:53;26.90;45.10
48806;DHT22;34625;47.176;27.548;2023-10-31T14:04:19;27.00;45.70
48806;DHT22;34625;47.176;27.548;2023-10-31T14:06:46;26.90;45.20
48806;DHT22;34625;47.176;27.548;2023-10-31T14:09:12;26.90;45.30
48806;DHT22;34625;47.176;27.548;2023-10-31T14:11:42;26.80;45.30
48806;DHT22;34625;47.176;27.548;2023-10-31T14:14:08;26.80;45.40
48806;DHT22;34625;47.176;27.548;2023-10-31T14:16:39;26.80;45.50
48806;DHT22;34625;47.176;27.548;2023-10-31T14:19:06;26.90;45.60
48806;DHT22;34625;47.176;27.548;2023-10-31T14:21:35;26.80;45.70
48806;DHT22;34625;47.176;27.548;2023-10-31T14:24:02;26.80;45.80
48806;DHT22;34625;47.176;27.548;2023-10-31T14:26:30;26.70;45.90
48806;DHT22;34625;47.176;27.548;2023-10-31T14:28:56;26.60;45.90
48806;DHT22;34625;47.176;27.548;2023-10-31T14:31:22;26.70;46.00
48806;DHT22;34625;47.176;27.548;2023-10-31T14:33:48;26.70;46.00
48806;DHT22;34625;47.176;27.548;2023-10-31T14:36:14;26.60;46.10
48806;DHT22;34625;47.176;27.548;2023-10-31T14:38:41;26.60;46.10
48806;DHT22;34625;47.176;27.548;2023-10-31T14:41:08;26.60;46.20
48806;DHT22;34625;47.176;27.548;2023-10-31T14:43:34;26.70;46.20
48806;DHT22;34625;47.176;27.548;2023-10-31T14:46:00;26.60;46.30
48806;DHT22;34625;47.176;27.548;2023-10-31T14:48:27;26.50;46.30
48806;DHT22;34625;47.176;27.548;2023-10-31T14:50:53;26.50;46.40
48806;DHT22;34625;47.176;27.548;2023-10-31T14:53:19;26.50;46.50
48806;DHT22;34625;47.176;27.548;2023-10-31T14:55:46;26.40;46.60
48806;DHT22;34625;47.176;27.548;2023-10-31T14:58:12;26.40;46.60
48806;DHT22;34625;47.176;27.548;2023-10-31T15:00:38;26.50;45.90
48806;DHT22;34625;47.176;27.548;2023-10-31T15:03:05;26.50;46.70
48806;DHT22;34625;47.176;27.548;2023-10-31T15:05:33;26.30;46.50
48806;DHT22;34625;47.176;27.548;2023-10-31T15:07:59;26.40;47.00
48806;DHT22;34625;47.176;27.548;2023-10-31T15:10:26;26.30;47.10
48806;DHT22;34625;47.176;27.548;2023-10-31T15:12:55;26.20;47.20
48806;DHT22;34625;47.176;27.548;2023-10-31T15:15:21;26.30;47.40
48806;DHT22;34625;47.176;27.548;2023-10-31T15:17:47;26.30;47.50
48806;DHT22;34625;47.176;27.548;2023-10-31T15:20:13;26.30;47.70